Time;durP1;ratioP1;P1;durP2;ratioP2;P2;SDS_P1;SDS_P2;PMS_P1;PMS_P2;Temp;Humidity;BMP_temperature;BMP_pressure;BME280_temperature;BME280_humidity;BME280_pressure;Samples;Min_cycle;Max_cycle;Signal;HPM_P1;HPM_P2
2023/04/11 00:00:20;;;;;;;49.35;33.30;;;;;;;10.58;65.53;100277.47;6152763;22;98311;-89
2023/04/11 00:02:46;;;;;;;48.72;32.17;;;;;;;10.50;65.28;100260.25;6127580;22;101035;-89
2023/04/11 00:05:12;;;;;;;47.97;31.85;;;;;;;10.49;65.86;100274.31;6126605;22;96946;-88
2023/04/11 00:07:37;;;;;;;46.25;31.77;;;;;;;10.53;65.41;100268.03;6177581;22;96797;-89
2023/04/11 00:10:03;;;;;;;53.35;34.85;;;;;;;10.51;65.65;100256.75;6175978;22;100126;-89
2023/04/11 00:12:29;;;;;;;46.55;31.75;;;;;;;10.40;65.95;100273.72;6152179;22;97974;-89
2023/04/11 00:14:55;;;;;;;48.83;33.35;;;;;;;10.46;65.80;100259.53;6152119;22;96703;-88
2023/04/11 00:17:22;;;;;;;44.10;32.75;;;;;;;10.53;65.90;100258.41;6127283;22;96997;-89
2023/04/11 00:19:48;;;;;;;44.15;31.17;;;;;;;10.42;65.80;100248.28;6152359;22;98309;-88
2023/04/11 00:22:17;;;;;;;45.22;30.70;;;;;;;10.45;65.56;100260.44;6151569;22;99842;-88
2023/04/11 00:24:43;;;;;;;44.28;30.60;;;;;;;10.38;65.90;100256.28;6152691;22;97140;-89
2023/04/11 00:27:09;;;;;;;46.28;32.30;;;;;;;10.46;65.30;100249.03;6152003;22;96835;-88
2023/04/11 00:29:35;;;;;;;44.25;30.25;;;;;;;10.47;65.09;100253.38;6124401;22;101373;-89
2023/04/11 00:32:02;;;;;;;44.40;32.45;;;;;;;10.38;65.02;100254.56;6152089;22;97788;-89
2023/04/11 00:34:27;;;;;;;44.00;30.35;;;;;;;10.40;64.81;100238.75;6151659;22;96952;-88
2023/04/11 00:36:53;;;;;;;44.20;30.88;;;;;;;10.40;64.75;100228.25;6126707;22;97381;-88
2023/04/11 00:39:21;;;;;;;46.17;32.10;;;;;;;10.43;64.46;100221.13;6126526;22;101688;-89
2023/04/11 00:41:47;;;;;;;46.47;32.30;;;;;;;10.15;64.43;100178.34;6152288;22;100126;-89
2023/04/11 00:44:12;;;;;;;47.33;31.15;;;;;;;10.43;65.00;100236.00;6126168;22;96717;-89
2023/04/11 00:46:43;;;;;;;44.92;31.05;;;;;;;10.40;64.81;100220.38;6126763;22;97034;-89
2023/04/11 00:49:11;;;;;;;46.30;32.88;;;;;;;10.50;64.59;100234.91;6125268;22;100170;-89
2023/04/11 00:51:37;;;;;;;47.00;31.10;;;;;;;10.25;65.17;100229.59;6126597;22;101400;-88
2023/04/11 00:54:02;;;;;;;51.30;32.53;;;;;;;10.15;65.67;100218.56;6150886;22;97044;-90
2023/04/11 00:56:28;;;;;;;47.75;32.85;;;;;;;10.28;64.98;100223.44;6126429;22;97160;-88
2023/04/11 00:58:54;;;;;;;45.35;31.65;;;;;;;10.24;65.08;100216.53;6124378;22;101260;-89
2023/04/11 01:01:22;;;;;;;42.53;30.17;;;;;;;10.18;65.04;100204.47;6151798;22;98957;-89
2023/04/11 01:03:48;;;;;;;48.92;33.60;;;;;;;10.20;64.74;100187.78;6152331;22;97179;-88
2023/04/11 01:06:14;;;;;;;44.78;30.67;;;;;;;10.18;64.88;100207.97;6151270;22;97487;-88
2023/04/11 01:08:41;;;;;;;43.60;30.65;;;;;;;10.09;64.59;100189.91;6126636;22;101084;-88
2023/04/11 01:11:07;;;;;;;43.47;31.35;;;;;;;10.10;65.04;100198.66;6178036;22;98338;-88
2023/04/11 01:13:33;;;;;;;42.97;28.90;;;;;;;10.14;65.02;100195.84;6153311;22;96582;-88
2023/04/11 01:15:59;;;;;;;39.15;28.55;;;;;;;10.12;64.86;100176.72;6152779;22;96812;-88
2023/04/11 01:18:25;;;;;;;40.63;29.50;;;;;;;10.10;64.58;100177.69;6152819;22;100592;-88
2023/04/11 01:20:51;;;;;;;42.53;30.42;;;;;;;10.16;64.67;100198.44;6128271;22;101891;-88
2023/04/11 01:23:24;;;;;;;50.28;31.25;;;;;;;10.11;64.17;100198.59;6127022;22;97447;-88
2023/04/11 01:25:50;;;;;;;39.00;29.67;;;;;;;10.00;64.80;100192.00;6127338;22;97682;-88
2023/04/11 01:28:17;;;;;;;44.78;30.33;;;;;;;9.94;64.54;100191.28;6152245;22;100788;-88
2023/04/11 01:30:43;;;;;;;41.78;29.75;;;;;;;9.96;65.11;100183.38;6127728;22;101203;-88
2023/04/11 01:33:09;;;;;;;43.40;30.38;;;;;;;9.96;64.76;100175.50;6127189;22;96971;-88
2023/04/11 01:35:35;;;;;;;41.80;29.40;;;;;;;10.01;64.74;100184.09;6126949;22;96963;-88
2023/04/11 01:38:02;;;;;;;42.03;30.92;;;;;;;9.94;64.82;100175.53;6150616;22;101674;-88
2023/04/11 01:40:28;;;;;;;43.08;29.98;;;;;;;9.98;64.54;100174.56;6121593;22;101275;-88
2023/04/11 01:42:54;;;;;;;42.95;30.77;;;;;;;9.99;64.79;100162.28;6122817;22;97052;-87
2023/04/11 01:45:20;;;;;;;42.95;30.13;;;;;;;9.94;64.61;100151.94;6122582;22;97004;-88
2023/04/11 01:47:46;;;;;;;47.35;31.85;;;;;;;9.96;64.49;100146.66;6122171;22;101595;-89
2023/04/11 01:50:12;;;;;;;47.20;32.35;;;;;;;9.92;65.14;100142.44;6147283;22;98243;-88
2023/04/11 01:52:37;;;;;;;43.78;30.35;;;;;;;9.86;64.65;100124.28;6148060;22;96656;-88
2023/04/11 01:55:03;;;;;;;42.63;30.98;;;;;;;9.83;65.04;100132.25;6172739;22;96977;-89
2023/04/11 01:57:29;;;;;;;43.17;31.48;;;;;;;9.88;65.18;100128.56;6122906;22;100635;-88
2023/04/11 01:59:55;;;;;;;47.25;32.83;;;;;;;9.81;65.19;100127.06;6146864;22;100652;-87
2023/04/11 02:02:21;;;;;;;44.28;30.50;;;;;;;9.73;65.67;100129.09;6123429;22;96721;-88
2023/04/11 02:04:46;;;;;;;46.13;31.10;;;;;;;9.68;65.95;100128.38;6123141;22;97011;-88
2023/04/11 02:07:13;;;;;;;43.72;29.92;;;;;;;9.65;65.40;100118.84;6122718;22;101063;-88
2023/04/11 02:09:39;;;;;;;46.15;30.63;;;;;;;9.63;66.02;100106.69;6147442;22;101099;-88
2023/04/11 02:12:04;;;;;;;42.15;29.75;;;;;;;9.64;65.61;100118.91;6172232;22;96939;-89
2023/04/11 02:14:41;;;;;;;43.45;31.13;;;;;;;9.61;65.94;100105.91;6122489;22;96876;-87
2023/04/11 02:17:08;;;;;;;46.30;31.65;;;;;;;9.42;65.63;100105.66;6121805;22;101389;-88
2023/04/11 02:19:35;;;;;;;44.28;30.23;;;;;;;9.40;65.99;100100.47;6122512;22;97645;-89
2023/04/11 02:22:01;;;;;;;45.92;31.52;;;;;;;9.43;66.43;100095.13;6147494;22;96784;-88
2023/04/11 02:24:27;;;;;;;45.65;31.45;;;;;;;9.40;66.18;100087.38;6122644;22;97098;-87
2023/04/11 02:26:54;;;;;;;41.80;30.65;;;;;;;9.43;66.14;100073.31;6122788;22;97997;-88
2023/04/11 02:29:20;;;;;;;44.22;31.25;;;;;;;9.37;65.97;100063.06;6147746;22;101258;-88
2023/04/11 02:31:48;;;;;;;47.47;31.42;;;;;;;9.38;66.20;100070.84;6147865;22;96754;-88
2023/04/11 02:34:16;;;;;;;45.10;30.77;;;;;;;9.33;66.27;100069.28;6122249;22;97208;-88
2023/04/11 02:36:42;;;;;;;43.08;29.20;;;;;;;9.40;66.02;100068.19;6121917;22;101984;-88
2023/04/11 02:39:08;;;;;;;50.53;30.63;;;;;;;9.42;65.66;100072.44;6121485;22;101160;-89
2023/04/11 02:41:37;;;;;;;43.67;29.80;;;;;;;9.26;65.80;100060.78;6170178;22;97012;-88
2023/04/11 02:44:03;;;;;;;46.13;30.10;;;;;;;9.29;66.22;100064.16;6151563;22;96902;-88
2023/04/11 02:46:29;;;;;;;45.15;28.45;;;;;;;9.30;66.13;100085.94;6177945;22;98021;-88
2023/04/11 02:48:54;;;;;;;42.83;29.17;;;;;;;9.35;65.84;100091.91;6127248;22;101081;-89
2023/04/11 02:51:20;;;;;;;41.55;28.95;;;;;;;9.39;66.00;100085.66;6152655;22;96774;-89
2023/04/11 02:53:45;;;;;;;42.45;28.75;;;;;;;9.46;65.28;100075.84;6127960;22;96704;-88
2023/04/11 02:56:17;;;;;;;44.75;29.10;;;;;;;9.44;65.24;100081.13;6153383;22;101835;-89
2023/04/11 02:58:44;;;;;;;44.00;29.85;;;;;;;9.46;64.97;100065.38;6152913;22;101118;-88
2023/04/11 03:01:15;;;;;;;37.95;26.77;;;;;;;9.33;65.50;100059.66;6127811;22;97283;-88
2023/04/11 03:03:41;;;;;;;41.83;28.25;;;;;;;9.39;65.28;100055.97;6127804;22;97413;-88
2023/04/11 03:06:08;;;;;;;43.47;29.10;;;;;;;9.41;64.92;100052.41;6152004;22;99770;-88
2023/04/11 03:08:36;;;;;;;40.90;28.60;;;;;;;9.48;64.52;100056.56;6152125;22;98271;-88
2023/04/11 03:11:03;;;;;;;45.35;29.48;;;;;;;9.42;65.27;100053.25;6127141;22;96960;-88
2023/04/11 03:13:29;;;;;;;41.13;28.23;;;;;;;9.39;64.38;100033.25;6152360;22;97130;-88
2023/04/11 03:15:54;;;;;;;43.28;27.50;;;;;;;9.35;64.83;100044.75;6152837;22;98235;-87
2023/04/11 03:18:24;;;;;;;41.00;27.70;;;;;;;9.11;65.55;100015.00;6153021;22;101665;-88
2023/04/11 03:20:51;;;;;;;36.03;25.90;;;;;;;9.31;64.80;100037.91;6152984;22;96663;-88
2023/04/11 03:23:17;;;;;;;42.95;28.23;;;;;;;9.36;64.56;100032.50;6127544;22;97257;-88
2023/04/11 03:25:46;;;;;;;44.67;29.95;;;;;;;9.26;64.58;100021.50;6152296;22;96895;-88
2023/04/11 03:28:14;;;;;;;39.85;26.95;;;;;;;9.16;65.08;100020.94;6128547;22;100244;-88
2023/04/11 03:30:41;;;;;;;42.35;28.10;;;;;;;9.14;64.68;100016.66;6127283;22;96697;-88
2023/04/11 03:33:08;;;;;;;39.88;27.38;;;;;;;9.15;65.13;100016.59;6127837;22;96874;-88
2023/04/11 03:35:35;;;;;;;38.70;27.25;;;;;;;9.07;65.42;100016.88;6177706;22;98422;-87
2023/04/11 03:38:00;;;;;;;40.20;27.42;;;;;;;9.20;65.31;100016.47;6151728;22;97868;-89
2023/04/11 03:40:26;;;;;;;39.65;26.58;;;;;;;9.28;65.27;100022.31;6152233;22;97298;-88
2023/04/11 03:43:14;;;;;;;41.75;29.00;;;;;;;9.33;64.48;100016.91;6136361;22;96784;-88
2023/04/11 03:45:40;;;;;;;41.97;28.75;;;;;;;9.01;65.31;100005.72;6126881;22;101432;-88
2023/04/11 03:48:12;;;;;;;39.83;28.45;;;;;;;8.90;65.69;99992.13;6129175;22;100959;-88
2023/04/11 03:50:49;;;;;;;41.55;29.13;;;;;;;8.53;66.62;99965.38;6177664;22;96675;-88
2023/04/11 03:53:18;;;;;;;44.58;29.00;;;;;;;8.58;66.75;99992.25;6128598;22;96904;-88
2023/04/11 03:55:47;;;;;;;39.92;27.48;;;;;;;8.45;66.94;99972.59;6152453;22;101595;-88
2023/04/11 03:58:15;;;;;;;41.10;28.17;;;;;;;8.61;66.89;99991.31;6127375;22;100619;-88
2023/04/11 04:00:41;;;;;;;39.58;27.98;;;;;;;8.63;67.03;99976.41;6151953;22;97151;-89
2023/04/11 04:03:08;;;;;;;46.45;29.83;;;;;;;8.71;66.61;99984.00;6127324;22;96780;-88
2023/04/11 04:05:36;;;;;;;44.08;28.58;;;;;;;8.67;66.74;99971.91;6151909;22;100643;-88
2023/04/11 04:08:02;;;;;;;40.90;28.27;;;;;;;8.73;67.02;99976.97;6152216;22;101459;-88
2023/04/11 04:10:41;;;;;;;41.15;27.60;;;;;;;8.77;66.95;99971.59;6132868;22;97161;-88
2023/04/11 04:13:08;;;;;;;45.95;29.08;;;;;;;8.73;66.85;99961.28;6127149;22;96605;-89
2023/04/11 04:15:37;;;;;;;40.38;27.60;;;;;;;8.67;67.39;99957.09;6151206;22;100165;-89
2023/04/11 04:18:04;;;;;;;43.10;26.77;;;;;;;8.68;67.50;99952.72;6126839;22;100071;-88
2023/04/11 04:20:50;;;;;;;40.78;28.25;;;;;;;8.68;67.04;99942.25;6156124;22;97205;-89
2023/04/11 04:23:22;;;;;;;42.20;28.45;;;;;;;8.88;67.15;99949.44;6128095;22;96941;-88
2023/04/11 04:26:04;;;;;;;43.83;29.13;;;;;;;8.92;67.07;99974.59;6155992;22;97838;-88
2023/04/11 04:28:31;;;;;;;43.15;31.60;;;;;;;8.87;67.36;99979.97;6126867;22;101559;-89
2023/04/11 04:31:01;;;;;;;46.40;30.67;;;;;;;8.73;67.91;99990.06;6152809;22;97141;-89
2023/04/11 04:33:31;;;;;;;47.20;31.63;;;;;;;8.46;68.39;99970.84;6129541;22;97041;-89
2023/04/11 04:35:58;;;;;;;45.45;29.88;;;;;;;8.48;68.34;99964.66;6151645;22;100282;-88
2023/04/11 04:38:28;;;;;;;47.03;30.38;;;;;;;8.54;68.53;99961.84;6127930;22;100046;-89
2023/04/11 04:40:57;;;;;;;43.22;29.75;;;;;;;8.68;67.85;99950.94;6127155;22;97706;-89
2023/04/11 04:43:26;;;;;;;47.50;30.67;;;;;;;8.27;68.60;99919.06;6128922;22;97403;-88
2023/04/11 04:46:10;;;;;;;46.63;29.08;;;;;;;8.39;69.27;99939.63;6159284;22;96962;-88
2023/04/11 04:48:43;;;;;;;45.55;30.73;;;;;;;8.51;69.07;99934.94;6131517;22;101508;-88
2023/04/11 04:51:09;;;;;;;40.58;28.42;;;;;;;8.51;68.62;99935.78;6153482;22;96658;-87
2023/04/11 04:53:37;;;;;;;43.33;30.92;;;;;;;8.50;68.89;99935.84;6127560;22;96970;-88
2023/04/11 04:56:05;;;;;;;43.13;29.85;;;;;;;8.50;68.52;99926.22;6126625;22;101479;-87
2023/04/11 04:58:34;;;;;;;43.35;30.10;;;;;;;8.60;68.57;99942.47;6128334;22;101684;-85
2023/04/11 05:01:03;;;;;;;45.10;29.25;;;;;;;8.72;68.03;99946.47;6150891;22;96707;-84
2023/04/11 05:03:34;;;;;;;45.85;29.80;;;;;;;8.71;67.54;99936.91;6126629;22;97029;-86
2023/04/11 05:06:01;;;;;;;44.78;30.60;;;;;;;8.63;68.11;99946.75;6126197;22;100423;-86
2023/04/11 05:08:27;;;;;;;41.83;29.60;;;;;;;8.50;68.85;99936.69;6125091;22;102045;-87
2023/04/11 05:10:56;;;;;;;43.70;28.90;;;;;;;8.58;68.97;99939.94;6151653;22;97665;-90
2023/04/11 05:13:22;;;;;;;43.33;28.30;;;;;;;8.67;68.65;99937.91;6126306;22;97313;-87
2023/04/11 05:15:48;;;;;;;41.58;28.77;;;;;;;8.74;68.36;99929.81;6126626;22;99655;-89
2023/04/11 05:18:14;;;;;;;40.83;27.92;;;;;;;8.77;67.65;99929.72;6147702;22;99968;-83
2023/04/11 05:20:40;;;;;;;39.55;27.73;;;;;;;8.77;68.10;99913.16;6148861;22;96634;-85
2023/04/11 05:23:07;;;;;;;39.30;27.20;;;;;;;8.71;68.06;99895.03;6126403;22;97408;-86
2023/04/11 05:25:33;;;;;;;41.45;28.25;;;;;;;8.79;68.08;99912.19;6130631;22;101351;-89
2023/04/11 05:28:00;;;;;;;40.75;27.13;;;;;;;8.79;67.70;99900.88;6130259;22;98218;-87
2023/04/11 05:30:26;;;;;;;40.10;28.55;;;;;;;8.67;68.19;99873.34;6152597;22;96668;-88
2023/04/11 05:32:52;;;;;;;39.45;27.70;;;;;;;8.87;67.35;99890.13;6153673;22;98338;-87
2023/04/11 05:35:18;;;;;;;39.65;27.65;;;;;;;8.86;67.14;99868.34;6151646;22;99453;-89
2023/04/11 05:37:48;;;;;;;39.20;27.77;;;;;;;8.86;67.27;99878.81;6153442;22;101752;-87
2023/04/11 05:40:15;;;;;;;45.25;27.98;;;;;;;8.84;67.14;99867.53;6128196;22;96724;-86
2023/04/11 05:42:41;;;;;;;40.15;27.35;;;;;;;8.81;67.28;99862.41;6153549;22;96630;-87
2023/04/11 05:45:07;;;;;;;38.85;25.98;;;;;;;8.77;67.66;99859.03;6177628;22;97223;-87
2023/04/11 05:47:32;;;;;;;41.03;28.75;;;;;;;8.69;66.96;99829.66;6176960;22;98179;-87
2023/04/11 05:49:58;;;;;;;36.10;26.60;;;;;;;8.75;67.71;99844.28;6179012;22;97913;-88
2023/04/11 05:52:24;;;;;;;40.20;27.60;;;;;;;8.70;67.82;99835.78;6126284;22;98692;-87
2023/04/11 05:54:49;;;;;;;40.15;26.15;;;;;;;8.76;67.59;99830.31;6150194;22;100395;-86
2023/04/11 05:57:16;;;;;;;40.25;27.35;;;;;;;8.76;67.95;99831.19;6123593;22;100930;-83
2023/04/11 05:59:41;;;;;;;40.58;27.27;;;;;;;8.81;68.31;99834.50;6150216;22;96717;-87
2023/04/11 06:02:07;;;;;;;36.25;25.73;;;;;;;8.82;67.48;99830.97;6124844;22;96941;-87
2023/04/11 06:04:33;;;;;;;40.10;26.52;;;;;;;8.91;67.90;99829.78;6150857;22;101448;-88
2023/04/11 06:06:58;;;;;;;44.50;26.27;;;;;;;8.89;67.26;99809.81;6125621;22;100379;-88
2023/04/11 06:09:24;;;;;;;40.25;27.77;;;;;;;8.84;67.64;99805.59;6124672;22;97231;-87
2023/04/11 06:11:50;;;;;;;35.25;25.80;;;;;;;8.85;67.64;99811.69;6151336;22;96956;-87
2023/04/11 06:14:15;;;;;;;35.42;25.35;;;;;;;8.81;68.27;99799.59;6125552;22;101335;-85
2023/04/11 06:16:41;;;;;;;39.97;25.77;;;;;;;8.91;67.99;99792.28;6150024;22;100679;-89
2023/04/11 06:19:06;;;;;;;39.33;25.95;;;;;;;8.88;68.25;99797.63;6149371;22;97099;-83
2023/04/11 06:21:32;;;;;;;41.90;27.00;;;;;;;8.96;68.12;99795.56;6149715;22;96883;-86
2023/04/11 06:24:08;;;;;;;39.15;26.50;;;;;;;8.96;68.23;99801.69;6150280;22;101311;-86
2023/04/11 06:26:33;;;;;;;37.78;26.00;;;;;;;8.93;67.79;99799.19;6148566;22;98011;-84
2023/04/11 06:28:59;;;;;;;37.95;25.70;;;;;;;8.88;68.29;99780.16;6148738;22;96614;-85
2023/04/11 06:31:25;;;;;;;35.70;24.67;;;;;;;9.05;67.89;99798.75;6124194;22;96861;-84
2023/04/11 06:33:50;;;;;;;41.20;25.25;;;;;;;9.19;68.38;99805.22;6176716;22;98007;-83
2023/04/11 06:36:16;;;;;;;39.58;25.23;;;;;;;9.26;67.50;99798.88;6174216;22;98283;-84
2023/04/11 06:38:42;;;;;;;40.50;24.55;;;;;;;9.29;67.39;99789.13;6123673;22;97327;-86
2023/04/11 06:41:07;;;;;;;36.72;24.92;;;;;;;9.28;67.63;99787.44;6148433;22;97215;-83
2023/04/11 06:43:33;;;;;;;38.90;24.33;;;;;;;9.17;67.69;99786.13;6148921;22;100539;-87
2023/04/11 06:45:59;;;;;;;40.38;26.23;;;;;;;9.11;67.65;99789.81;6149117;22;97835;-86
2023/04/11 06:48:24;;;;;;;37.80;24.63;;;;;;;9.10;68.18;99769.75;6173670;22;97105;-85
2023/04/11 06:50:50;;;;;;;42.25;25.67;;;;;;;9.13;68.30;99771.41;6124625;22;96944;-87
2023/04/11 06:53:15;;;;;;;37.50;24.90;;;;;;;9.07;68.34;99769.88;6124852;22;100927;-85
2023/04/11 06:55:41;;;;;;;40.28;26.75;;;;;;;9.07;68.42;99767.25;6174890;22;97836;-85
2023/04/11 06:58:06;;;;;;;34.63;24.45;;;;;;;9.07;68.57;99775.09;6175886;22;96946;-83
2023/04/11 07:00:32;;;;;;;37.47;25.27;;;;;;;9.10;68.67;99754.03;6149538;22;97217;-85
2023/04/11 07:02:58;;;;;;;39.20;24.73;;;;;;;9.14;68.50;99749.56;6123299;22;101381;-87
2023/04/11 07:05:25;;;;;;;36.25;24.83;;;;;;;9.06;68.41;99740.22;6173461;22;97883;-77
2023/04/11 07:07:51;;;;;;;38.45;24.35;;;;;;;9.24;68.17;99759.63;6122721;22;97295;-84
2023/04/11 07:10:16;;;;;;;39.83;26.15;;;;;;;9.32;68.75;99761.97;6149092;22;97184;-87
2023/04/11 07:12:42;;;;;;;37.30;25.30;;;;;;;9.32;68.76;99767.22;6124491;22;101903;-84
2023/04/11 07:15:08;;;;;;;38.17;26.90;;;;;;;9.34;67.91;99764.50;6123972;22;101469;-85
2023/04/11 07:17:34;;;;;;;38.42;26.17;;;;;;;9.22;68.66;99764.09;6174662;22;96648;-86
2023/04/11 07:19:59;;;;;;;36.25;24.85;;;;;;;9.19;68.80;99773.78;6125903;22;96742;-88
2023/04/11 07:22:25;;;;;;;36.30;25.00;;;;;;;9.19;68.81;99761.59;6123254;22;101430;-86
2023/04/11 07:24:51;;;;;;;35.85;24.52;;;;;;;9.16;68.68;99746.00;6149639;22;101388;-84
2023/04/11 07:27:17;;;;;;;38.42;25.13;;;;;;;9.24;68.52;99745.69;6122774;22;96902;-85
2023/04/11 07:29:43;;;;;;;43.83;25.85;;;;;;;9.32;68.60;99751.50;6149243;22;96866;-86
2023/04/11 07:32:08;;;;;;;40.83;25.15;;;;;;;9.17;68.63;99742.44;6147316;22;99757;-85
2023/04/11 07:34:34;;;;;;;31.60;23.92;;;;;;;9.30;68.88;99748.91;6148803;22;101196;-85
2023/04/11 07:36:59;;;;;;;35.67;24.55;;;;;;;9.36;68.82;99744.38;6148413;22;96959;-84
2023/04/11 07:39:26;;;;;;;34.97;24.42;;;;;;;9.43;68.13;99741.47;6123192;22;97416;-86
2023/04/11 07:41:55;;;;;;;36.47;23.60;;;;;;;9.41;68.37;99727.56;6148863;22;98158;-85
2023/04/11 07:44:20;;;;;;;39.33;24.75;;;;;;;9.48;68.83;99721.19;6148765;22;98386;-85
2023/04/11 07:46:46;;;;;;;34.63;24.05;;;;;;;9.58;68.43;99726.91;6148596;22;97234;-84
2023/04/11 07:49:11;;;;;;;40.25;25.75;;;;;;;9.58;68.46;99716.44;6123713;22;97487;-86
2023/04/11 07:51:37;;;;;;;35.95;24.40;;;;;;;9.61;67.92;99716.31;6123751;22;101116;-86
2023/04/11 07:54:03;;;;;;;44.70;26.23;;;;;;;9.63;68.06;99700.50;6124293;22;101433;-85
2023/04/11 07:56:28;;;;;;;39.72;26.92;;;;;;;9.59;68.72;99702.41;6122431;22;97450;-85
2023/04/11 07:58:55;;;;;;;36.88;24.77;;;;;;;9.66;68.08;99695.16;6123811;22;97717;-85
2023/04/11 08:01:25;;;;;;;41.33;25.10;;;;;;;9.77;68.26;99706.03;6123595;22;100341;-84
2023/04/11 08:03:54;;;;;;;35.10;24.75;;;;;;;9.78;68.04;99701.69;6150081;22;98042;-86
2023/04/11 08:06:20;;;;;;;35.30;24.45;;;;;;;9.73;67.90;99688.75;6122689;22;97157;-86
2023/04/11 08:08:47;;;;;;;31.92;22.50;;;;;;;9.79;68.31;99692.88;6124343;22;97328;-86
2023/04/11 08:11:13;;;;;;;36.92;24.70;;;;;;;9.85;68.07;99688.25;6123229;22;100786;-85
2023/04/11 08:13:38;;;;;;;35.78;25.73;;;;;;;9.85;68.01;99685.63;6124539;22;99886;-88
2023/04/11 08:16:05;;;;;;;36.35;26.13;;;;;;;9.82;68.52;99672.63;6149785;22;96882;-86
2023/04/11 08:18:31;;;;;;;40.97;25.02;;;;;;;9.97;68.04;99673.78;6147960;22;97281;-86
2023/04/11 08:20:57;;;;;;;37.78;24.40;;;;;;;9.97;67.76;99679.88;6173295;22;97745;-86
2023/04/11 08:23:22;;;;;;;36.60;24.80;;;;;;;9.89;67.92;99655.75;6124126;22;101401;-86
2023/04/11 08:25:48;;;;;;;32.25;23.48;;;;;;;10.01;67.65;99670.13;6123860;22;97165;-86
2023/04/11 08:28:14;;;;;;;36.42;25.20;;;;;;;10.14;67.92;99680.94;6148038;22;96878;-86
2023/04/11 08:30:39;;;;;;;36.22;24.92;;;;;;;10.22;67.58;99672.75;6174742;22;98299;-86
2023/04/11 08:33:06;;;;;;;32.08;23.58;;;;;;;10.13;67.69;99645.16;6124586;22;101743;-88
2023/04/11 08:35:31;;;;;;;39.10;24.83;;;;;;;10.26;67.98;99661.19;6122995;22;97213;-84
2023/04/11 08:37:57;;;;;;;37.47;23.70;;;;;;;10.30;67.45;99652.31;6124958;22;97105;-86
2023/04/11 08:40:22;;;;;;;35.05;22.60;;;;;;;10.29;67.84;99637.50;6149037;22;100050;-86
2023/04/11 08:42:48;;;;;;;31.88;23.05;;;;;;;10.38;67.94;99637.97;6149839;22;100610;-85
2023/04/11 08:45:13;;;;;;;39.47;23.20;;;;;;;10.49;67.72;99647.97;6123842;22;96602;-86
2023/04/11 08:47:39;;;;;;;30.45;22.08;;;;;;;10.59;67.72;99649.28;6148646;22;96713;-86
2023/04/11 08:50:05;;;;;;;37.80;25.40;;;;;;;10.53;67.53;99631.19;6149802;22;101259;-86
2023/04/11 08:52:31;;;;;;;37.25;24.92;;;;;;;10.68;67.98;99647.16;6123094;22;100943;-87
2023/04/11 08:54:57;;;;;;;39.15;25.27;;;;;;;10.67;68.00;99632.31;6124114;22;96863;-87
2023/04/11 08:57:24;;;;;;;34.88;25.45;;;;;;;10.80;67.98;99641.34;6147366;22;96864;-85
2023/04/11 08:59:51;;;;;;;38.28;24.58;;;;;;;10.93;67.56;99642.47;6148928;22;97899;-87
2023/04/11 09:02:16;;;;;;;41.50;26.15;;;;;;;11.04;67.29;99639.34;6123562;22;101858;-84
2023/04/11 09:04:43;;;;;;;39.08;23.95;;;;;;;11.04;67.33;99621.81;6123545;22;97105;-85
2023/04/11 09:07:10;;;;;;;33.45;24.85;;;;;;;11.04;67.53;99613.09;6122409;22;96823;-86
2023/04/11 09:09:36;;;;;;;36.13;23.88;;;;;;;11.24;67.23;99614.78;6148487;22;100525;-86
2023/04/11 09:12:03;;;;;;;37.85;24.85;;;;;;;11.54;66.31;99630.81;6149108;22;98211;-85
2023/04/11 09:14:29;;;;;;;35.53;24.10;;;;;;;11.74;66.47;99608.81;6148625;22;96715;-86
2023/04/11 09:17:03;;;;;;;39.60;26.83;;;;;;;12.11;66.09;99623.63;6172451;22;96723;-85
2023/04/11 09:19:30;;;;;;;35.08;23.83;;;;;;;12.08;65.49;99594.00;6122911;22;101975;-88
2023/04/11 09:22:01;;;;;;;32.92;23.30;;;;;;;12.02;65.56;99579.38;6123725;22;101290;-86
2023/04/11 09:24:28;;;;;;;34.53;23.83;;;;;;;12.23;65.48;99593.19;6124542;22;96734;-85
2023/04/11 09:27:15;;;;;;;33.88;23.95;;;;;;;12.37;64.59;99600.38;6149115;22;97122;-83
2023/04/11 09:29:44;;;;;;;32.92;21.63;;;;;;;12.41;64.60;99607.16;6124300;22;100730;-86
2023/04/11 09:32:32;;;;;;;24.70;18.70;;;;;;;12.37;63.79;99592.47;6150499;22;101320;-86
2023/04/11 09:35:14;;;;;;;27.33;19.90;;;;;;;12.36;64.10;99578.47;6124926;22;97709;-85
2023/04/11 09:37:44;;;;;;;32.22;19.20;;;;;;;12.27;63.37;99562.28;6124603;22;96918;-86
2023/04/11 09:40:10;;;;;;;25.05;17.80;;;;;;;12.40;63.15;99582.63;6129973;22;101360;-87
2023/04/11 09:42:36;;;;;;;27.27;19.83;;;;;;;12.59;62.47;99566.69;6129646;22;101404;-87
2023/04/11 09:45:03;;;;;;;27.58;17.95;;;;;;;12.69;62.09;99569.69;6155397;22;97449;-85
2023/04/11 09:47:32;;;;;;;28.65;18.77;;;;;;;12.56;61.84;99552.84;6128954;22;96934;-87
2023/04/11 09:49:59;;;;;;;29.58;19.65;;;;;;;12.70;62.49;99547.66;6207865;22;98104;-85
2023/04/11 09:52:25;;;;;;;32.92;19.10;;;;;;;12.84;61.75;99558.28;6154445;22;100221;-86
2023/04/11 09:54:51;;;;;;;24.77;17.80;;;;;;;12.78;62.49;99565.69;6181569;22;96760;-86
2023/04/11 09:57:18;;;;;;;24.50;17.10;;;;;;;12.82;62.02;99572.47;6129354;22;97080;-84
2023/04/11 09:59:44;;;;;;;26.58;16.60;;;;;;;12.68;61.34;99565.31;6178635;22;101332;-84
2023/04/11 10:02:10;;;;;;;25.50;16.42;;;;;;;12.72;61.39;99569.50;6153789;22;97493;-83
2023/04/11 10:04:37;;;;;;;21.70;15.85;;;;;;;12.78;61.13;99568.31;6128692;22;96969;-84
2023/04/11 10:07:10;;;;;;;24.00;16.23;;;;;;;12.56;62.25;99564.22;6153633;22;96753;-83
2023/04/11 10:09:41;;;;;;;23.23;17.48;;;;;;;12.68;62.37;99589.03;6153711;22;98036;-85
2023/04/11 10:12:07;;;;;;;24.08;18.23;;;;;;;12.58;62.50;99574.66;6154181;22;102012;-84
2023/04/11 10:14:36;;;;;;;25.52;16.95;;;;;;;12.66;62.47;99575.97;6128519;22;96954;-84
2023/04/11 10:17:19;;;;;;;22.75;16.95;;;;;;;12.65;62.98;99600.59;6181797;22;97230;-91
2023/04/11 10:19:45;;;;;;;23.42;17.20;;;;;;;12.70;63.01;99579.25;6156801;22;101741;-85
2023/04/11 10:22:39;;;;;;;22.67;16.77;;;;;;;12.77;62.50;99592.94;6153780;22;101281;-85
2023/04/11 10:25:17;;;;;;;23.73;16.30;;;;;;;12.69;63.52;99596.00;6153620;22;97597;-84
2023/04/11 10:27:55;;;;;;;25.02;17.02;;;;;;;12.55;63.52;99596.75;6152444;22;97309;-84
2023/04/11 10:30:39;;;;;;;22.25;15.75;;;;;;;12.61;63.44;99601.69;6129138;22;101628;-84
2023/04/11 10:33:13;;;;;;;21.90;16.20;;;;;;;12.57;63.61;99597.53;6153713;22;101440;-84
2023/04/11 10:36:04;;;;;;;19.52;15.55;;;;;;;12.70;63.18;99592.44;6152925;22;96687;-83
2023/04/11 10:38:39;;;;;;;22.23;16.17;;;;;;;12.58;63.70;99587.84;6153855;22;97278;-84
2023/04/11 10:41:17;;;;;;;25.17;15.60;;;;;;;12.67;63.64;99595.22;6177771;22;97463;-85
2023/04/11 10:43:44;;;;;;;17.40;12.80;;;;;;;12.69;62.29;99593.38;6154750;22;98991;-84
2023/04/11 10:46:24;;;;;;;16.27;12.32;;;;;;;12.67;61.52;99596.06;6153317;22;97219;-83
2023/04/11 10:49:00;;;;;;;15.50;12.23;;;;;;;12.64;60.82;99604.16;6153643;22;96680;-83
2023/04/11 10:51:32;;;;;;;15.73;10.82;;;;;;;12.67;61.03;99593.44;6126320;22;101710;-82
2023/04/11 10:53:58;;;;;;;16.10;10.00;;;;;;;12.66;59.93;99597.03;6128841;22;100811;-82
2023/04/11 10:56:45;;;;;;;16.77;10.35;;;;;;;12.69;59.44;99604.75;6177891;22;97269;-82
2023/04/11 10:59:29;;;;;;;16.23;10.38;;;;;;;12.70;59.43;99613.50;6179052;22;98236;-83
2023/04/11 11:01:56;;;;;;;12.40;10.00;;;;;;;12.74;59.61;99620.31;6206424;22;97501;-82
2023/04/11 11:04:31;;;;;;;13.63;11.05;;;;;;;12.69;58.46;99622.34;6129167;22;99920;-82
2023/04/11 11:06:57;;;;;;;16.02;11.25;;;;;;;12.49;59.26;99610.25;6179128;22;97117;-83
2023/04/11 11:09:23;;;;;;;14.48;11.48;;;;;;;12.56;59.85;99622.13;6129475;22;96802;-83
2023/04/11 11:12:24;;;;;;;18.50;12.13;;;;;;;12.56;60.75;99643.19;6129785;22;100778;-83
2023/04/11 11:14:50;;;;;;;21.10;13.10;;;;;;;12.53;61.63;99638.09;6063919;23;101128;-83
2023/04/11 11:17:16;;;;;;;16.70;13.10;;;;;;;12.43;62.59;99656.16;6158818;22;96778;-82
2023/04/11 11:19:45;;;;;;;15.70;12.13;;;;;;;12.37;63.37;99667.00;6179511;22;97353;-81